Terminal Aerodrome Forecast
Issued by NWS

Home | Current Version | Previous Version | Text Only | Print | Product List | Glossary On
Versions: 1 2 3 4 5 6 7
000
FTUS42 KTAE 272300
TAFDHN
TAF
KDHN 272320Z 2800/2824 VRB06KT P6SM -SHRA OVC070
     FM280400 12003KT 5SM BR BKN015
     FM280900 16006KT 2SM BR OVC007
     FM281500 20008KT P6SM OVC015
     FM281700 23009KT P6SM VCTS BKN025CB=

USA.gov is the U.S. government's official web portal to all federal, state and local government web resources and services.